Kingston, Ohio
Current Conditions -  °F | °C
As of 2:54 PM on Wednesday 17 Dec 2014 (Local Time) from KRZT Reporting Station
Overcast Overcast  
Wind Chill: 22°   Ceiling: 1600
Heat Index: 32°   Visibility: 10mi
Dew Point: 27°   Wind: 14mph
Humidity: 80%   Direction: 320°NW
Pressure: 30.18"   Gusts: NA
Location:  39.47°N, 82.91°W
Report Text: KRZT 171954Z AUTO 32012KT 10SM OVC016 00/M03 A3018 RMK AO2
Loading
Personal Weather Stations






























Interactive Weather Map New forecast layout! Learn more

10-Day Weather Forecast

Advertisements
Track Severe Weather on mobile